Time;durP1;ratioP1;P1;durP2;ratioP2;P2;SDS_P1;SDS_P2;PMS_P1;PMS_P2;Temp;Humidity;BMP_temperature;BMP_pressure;BME280_temperature;BME280_humidity;BME280_pressure;Samples;Min_cycle;Max_cycle;Signal;HPM_P1;HPM_P2
2022/08/06 00:00:14;;;;;;;1.87;1.87;;;;;;;;;;5097781;28;20177;-72
2022/08/06 00:02:41;;;;;;;1.60;1.60;;;;;;;11.96;97.39;65423.53;5097146;28;20213;-72
2022/08/06 00:05:08;;;;;;;4.03;2.53;;;;;;;11.92;97.59;65421.13;5097464;28;20613;-71
2022/08/06 00:07:43;;;;;;;2.50;2.47;;;;;;;11.79;98.26;65407.25;5097030;28;20564;-71
2022/08/06 00:10:17;;;;;;;2.20;1.70;;;;;;;11.76;98.80;65403.91;5097055;28;20170;-72
2022/08/06 00:12:46;;;;;;;2.00;2.00;;;;;;;11.70;98.85;65400.41;5097290;28;20582;-72
2022/08/06 00:15:14;;;;;;;2.40;2.30;;;;;;;;;;5096839;28;20232;-72
2022/08/06 00:18:01;;;;;;;3.13;2.83;;;;;;;11.51;99.42;65374.69;5097196;28;20256;-72
2022/08/06 00:20:27;;;;;;;3.53;2.40;;;;;;;11.48;99.86;65373.94;5097038;28;20645;-72
2022/08/06 00:22:59;;;;;;;3.07;2.97;;;;;;;11.35;100.00;65358.97;5096781;28;20251;-72
2022/08/06 00:25:26;;;;;;;2.47;2.37;;;;;;;11.24;100.00;65362.94;5096674;28;20209;-72
2022/08/06 00:27:53;;;;;;;2.40;2.30;;;;;;;11.20;100.00;65335.66;5096459;28;20216;-72
2022/08/06 00:30:20;;;;;;;2.17;2.17;;;;;;;11.17;100.00;65342.19;5096666;28;20783;-72
2022/08/06 00:32:48;;;;;;;2.70;2.70;;;;;;;11.14;100.00;65338.84;5097178;28;20194;-72
2022/08/06 00:35:18;;;;;;;2.30;2.30;;;;;;;11.16;100.00;65341.63;5096677;28;20213;-72
2022/08/06 00:37:47;;;;;;;2.60;2.40;;;;;;;11.13;100.00;65332.53;5096758;28;20186;-72
2022/08/06 00:40:26;;;;;;;3.17;2.80;;;;;;;11.08;100.00;65329.59;5097031;28;20651;-72
2022/08/06 00:42:57;;;;;;;2.77;2.77;;;;;;;11.02;100.00;65329.25;5096437;28;20174;-72
2022/08/06 00:45:23;;;;;;;2.37;2.37;;;;;;;10.95;100.00;65321.50;5096287;28;20207;-71
2022/08/06 00:47:54;;;;;;;2.17;2.17;;;;;;;10.91;100.00;65311.84;5096495;28;20232;-71
2022/08/06 00:50:32;;;;;;;2.63;2.60;;;;;;;10.89;100.00;65306.50;5095665;28;20178;-71
2022/08/06 00:53:01;;;;;;;2.83;2.73;;;;;;;10.83;100.00;65302.44;5096233;28;20186;-72
2022/08/06 00:55:29;;;;;;;3.00;3.00;;;;;;;;;;5096107;28;20630;-71
2022/08/06 00:58:02;;;;;;;2.97;2.97;;;;;;;10.75;100.00;65294.69;5096153;28;20178;-71
2022/08/06 01:00:31;;;;;;;2.93;2.83;;;;;;;10.71;100.00;65292.81;5078510;28;20598;-72
2022/08/06 01:03:02;;;;;;;2.27;2.27;;;;;;;10.71;100.00;65300.06;5096312;28;20185;-72
2022/08/06 01:05:29;;;;;;;3.00;2.90;;;;;;;10.68;100.00;65291.56;5095899;28;20263;-72
2022/08/06 01:08:15;;;;;;;5.13;2.50;;;;;;;10.64;100.00;65279.88;5096473;28;20199;-72
2022/08/06 01:10:43;;;;;;;2.57;2.57;;;;;;;10.61;100.00;65278.59;5096139;28;20209;-72
2022/08/06 01:13:11;;;;;;;2.60;2.40;;;;;;;10.58;100.00;65275.28;5096125;28;20278;-72
2022/08/06 01:16:26;;;;;;;2.63;2.63;;;;;;;10.53;100.00;65270.28;5095999;28;20209;-72
2022/08/06 01:19:22;;;;;;;2.83;2.83;;;;;;;10.49;100.00;65276.22;5090346;28;20204;-72
2022/08/06 01:22:35;;;;;;;2.20;2.20;;;;;;;10.48;100.00;65267.34;5095668;28;20208;-72
2022/08/06 01:25:08;;;;;;;3.20;3.20;;;;;;;;;;5090057;28;20232;-72
2022/08/06 01:27:40;;;;;;;2.63;2.63;;;;;;;10.45;100.00;65264.59;5095454;28;20213;-72
2022/08/06 01:30:18;;;;;;;3.03;2.93;;;;;;;10.42;100.00;65265.88;5095843;28;20231;-72
2022/08/06 01:33:01;;;;;;;2.67;2.67;;;;;;;10.38;100.00;65258.88;5095764;28;20178;-72
2022/08/06 01:35:39;;;;;;;2.53;2.53;;;;;;;10.32;100.00;65247.03;5095930;28;20213;-72
2022/08/06 01:38:23;;;;;;;3.00;3.00;;;;;;;10.28;100.00;65240.53;5095625;28;20188;-72
2022/08/06 01:40:50;;;;;;;2.37;2.37;;;;;;;;;;5095266;28;20186;-72
2022/08/06 01:43:19;;;;;;;2.80;2.80;;;;;;;10.11;100.00;65226.88;5095508;28;20190;-72
2022/08/06 01:46:08;;;;;;;2.63;2.43;;;;;;;10.07;100.00;65217.81;5095288;28;20619;-72
2022/08/06 01:48:39;;;;;;;2.77;2.77;;;;;;;10.01;100.00;65216.38;5095452;28;20178;-72
2022/08/06 01:51:07;;;;;;;2.60;2.60;;;;;;;9.96;100.00;65213.41;5095086;28;20212;-72
2022/08/06 01:53:44;;;;;;;3.00;3.00;;;;;;;9.92;100.00;65206.38;5095373;28;20200;-72
2022/08/06 01:56:33;;;;;;;2.33;2.33;;;;;;;9.87;100.00;65198.81;5095001;28;20210;-72
2022/08/06 01:59:24;;;;;;;3.70;3.60;;;;;;;9.88;100.00;65205.09;5095232;28;20197;-72
2022/08/06 02:01:54;;;;;;;2.63;2.63;;;;;;;9.88;100.00;65207.69;5076798;28;20243;-72
2022/08/06 02:04:24;;;;;;;2.93;2.93;;;;;;;9.88;100.00;65199.38;5095105;28;20671;-72
2022/08/06 02:06:54;;;;;;;2.50;2.50;;;;;;;9.84;100.00;65195.47;5094730;28;20220;-72
2022/08/06 02:09:22;;;;;;;3.10;3.00;;;;;;;9.79;100.00;65189.97;5094706;28;20190;-72
2022/08/06 02:12:08;;;;;;;2.90;2.90;;;;;;;9.80;100.00;65190.50;5095513;28;20619;-72
2022/08/06 02:14:58;;;;;;;4.67;2.70;;;;;;;9.79;100.00;65189.97;5094871;28;20178;-71
2022/08/06 02:17:29;;;;;;;3.50;3.20;;;;;;;9.80;100.00;65191.06;5095142;28;20194;-71
2022/08/06 02:20:19;;;;;;;3.17;3.07;;;;;;;9.78;100.00;65188.84;5094535;28;20182;-72
2022/08/06 02:23:07;;;;;;;3.83;3.83;;;;;;;9.80;100.00;65190.50;5094802;28;20251;-72
2022/08/06 02:25:39;;;;;;;3.47;3.37;;;;;;;9.78;100.00;65190.88;5094956;28;20210;-71
2022/08/06 02:28:08;;;;;;;2.90;2.90;;;;;;;9.68;100.00;65177.22;5094202;28;20705;-72
2022/08/06 02:30:38;;;;;;;4.20;4.00;;;;;;;9.60;100.00;65169.47;5094349;28;20582;-72
2022/08/06 02:33:09;;;;;;;3.27;3.27;;;;;;;;;;5094613;28;20615;-72
2022/08/06 02:36:02;;;;;;;3.23;3.23;;;;;;;9.48;100.00;65160.81;5094189;28;20213;-71
2022/08/06 02:38:51;;;;;;;3.00;3.00;;;;;;;9.40;100.00;65149.34;5094255;28;20532;-71
2022/08/06 02:41:30;;;;;;;3.80;3.43;;;;;;;9.41;100.00;65158.78;5094178;28;20177;-71
2022/08/06 02:44:12;;;;;;;3.50;3.50;;;;;;;;;;5077483;28;20174;-71
2022/08/06 02:46:50;;;;;;;2.90;2.90;;;;;;;9.35;100.00;65147.50;5093947;28;20575;-71
2022/08/06 02:49:20;;;;;;;3.33;3.33;;;;;;;9.29;100.00;65135.16;5094307;28;20174;-71
2022/08/06 02:52:00;;;;;;;3.80;3.50;;;;;;;9.18;100.00;65122.97;5094282;28;20252;-71
2022/08/06 02:54:42;;;;;;;4.03;3.93;;;;;;;9.07;100.00;65117.09;5094203;28;20236;-72
2022/08/06 02:57:17;;;;;;;3.43;3.37;;;;;;;9.01;100.00;65110.44;5094222;28;20181;-72
2022/08/06 02:59:47;;;;;;;3.80;3.70;;;;;;;8.93;100.00;65106.78;5094126;28;20174;-73
2022/08/06 03:02:25;;;;;;;3.73;3.47;;;;;;;8.87;100.00;65092.38;5093835;28;20177;-73
2022/08/06 03:04:54;;;;;;;3.73;3.73;;;;;;;8.82;100.00;65089.97;5094164;28;20213;-71
2022/08/06 03:07:27;;;;;;;3.47;3.47;;;;;;;8.81;100.00;65083.13;5093945;28;20281;-72
2022/08/06 03:09:57;;;;;;;3.83;3.80;;;;;;;8.73;100.00;65079.47;5094270;28;20181;-72
2022/08/06 03:12:25;;;;;;;6.03;3.30;;;;;;;8.62;100.00;65072.47;5093229;28;20269;-72
2022/08/06 03:15:01;;;;;;;3.70;3.37;;;;;;;8.52;100.00;65049.56;5093513;28;20217;-71
2022/08/06 03:17:39;;;;;;;3.27;3.27;;;;;;;8.49;100.00;65051.41;5093577;28;20204;-72
2022/08/06 03:20:07;;;;;;;3.13;3.13;;;;;;;8.52;100.00;65051.59;5094095;28;20533;-72
2022/08/06 03:22:46;;;;;;;3.50;3.30;;;;;;;8.58;100.00;65057.69;5094068;28;20178;-72
2022/08/06 03:25:14;;;;;;;4.13;3.93;;;;;;;8.60;100.00;65068.22;5093866;28;20209;-72
2022/08/06 03:27:42;;;;;;;3.73;3.70;;;;;;;8.61;100.00;65061.56;5093442;28;20238;-72
2022/08/06 03:30:15;;;;;;;4.27;4.17;;;;;;;8.66;100.00;65072.28;5093395;28;20196;-72
2022/08/06 03:33:06;;;;;;;3.87;3.87;;;;;;;8.65;100.00;65084.09;5093398;28;20208;-72
2022/08/06 03:35:53;;;;;;;3.23;3.23;;;;;;;;;;5093597;28;20202;-71
2022/08/06 03:38:22;;;;;;;4.23;4.13;;;;;;;8.62;100.00;65072.47;5093335;28;20182;-71
2022/08/06 03:40:58;;;;;;;4.50;4.40;;;;;;;8.55;100.00;65052.88;5093572;28;20195;-71
2022/08/06 03:43:27;;;;;;;3.77;3.77;;;;;;;8.49;100.00;65048.81;5093869;28;20195;-71
2022/08/06 03:46:17;;;;;;;3.83;3.83;;;;;;;8.42;100.00;65050.88;5093210;28;20301;-72
2022/08/06 03:48:44;;;;;;;3.70;3.70;;;;;;;8.40;100.00;65044.06;5075832;28;20201;-72
2022/08/06 03:51:13;;;;;;;3.90;3.90;;;;;;;8.37;100.00;65040.75;5093202;28;20239;-72
2022/08/06 03:53:42;;;;;;;4.10;4.00;;;;;;;8.39;100.00;65037.22;5093462;28;20178;-72
2022/08/06 03:56:20;;;;;;;4.90;4.60;;;;;;;8.35;100.00;65033.34;5093254;28;20714;-71
2022/08/06 03:59:00;;;;;;;4.13;4.00;;;;;;;8.40;100.00;65038.88;5093188;28;20181;-71
2022/08/06 04:01:32;;;;;;;4.23;4.13;;;;;;;;;;5093146;28;20227;-71
2022/08/06 04:04:00;;;;;;;4.87;4.10;;;;;;;8.39;100.00;65045.53;5074979;28;20209;-71
2022/08/06 04:06:47;;;;;;;4.27;4.27;;;;;;;8.41;100.00;65042.00;5093528;28;20212;-71
2022/08/06 04:09:19;;;;;;;4.83;4.63;;;;;;;8.44;100.00;65053.09;5093377;28;20181;-71
2022/08/06 04:12:06;;;;;;;4.17;4.07;;;;;;;8.47;100.00;65062.13;5093326;28;20261;-71
2022/08/06 04:14:53;;;;;;;5.07;4.63;;;;;;;8.46;100.00;65055.31;5093461;28;20202;-71
2022/08/06 04:17:22;;;;;;;4.33;4.03;;;;;;;8.42;100.00;65043.13;5092974;28;20254;-71
2022/08/06 04:19:49;;;;;;;4.63;4.40;;;;;;;8.44;100.00;65061.41;5093243;28;20225;-71
2022/08/06 04:22:16;;;;;;;4.27;4.13;;;;;;;8.47;100.00;65064.72;5092958;28;20216;-71
2022/08/06 04:25:03;;;;;;;5.03;4.73;;;;;;;8.48;100.00;65052.34;5094438;28;20214;-71
2022/08/06 04:27:41;;;;;;;4.40;4.27;;;;;;;8.35;100.00;65030.75;5096649;28;20220;-73
2022/08/06 04:30:23;;;;;;;4.27;4.27;;;;;;;8.29;100.00;65024.13;5096664;28;20181;-73
2022/08/06 04:32:51;;;;;;;4.43;4.33;;;;;;;8.24;100.00;65026.88;5096922;28;20261;-72
2022/08/06 04:35:28;;;;;;;5.03;4.00;;;;;;;8.22;100.00;65024.13;5096813;28;20221;-71
2022/08/06 04:38:16;;;;;;;6.27;4.03;;;;;;;8.21;100.00;65015.25;5097121;28;20192;-71
2022/08/06 04:40:53;;;;;;;4.77;4.67;;;;;;;8.25;100.00;65022.81;5096492;28;20170;-72
2022/08/06 04:43:20;;;;;;;4.47;4.33;;;;;;;8.30;100.00;65035.56;5096420;28;20614;-72
2022/08/06 04:45:48;;;;;;;5.37;5.07;;;;;;;8.37;100.00;65051.09;5096580;28;20210;-72
2022/08/06 04:48:35;;;;;;;5.20;5.10;;;;;;;8.45;100.00;65049.59;5096568;28;20205;-72
2022/08/06 04:51:13;;;;;;;4.70;4.70;;;;;;;8.40;100.00;65044.06;5096844;28;20527;-72
2022/08/06 04:53:59;;;;;;;5.57;5.13;;;;;;;8.38;100.00;65039.25;5096255;28;20189;-72
2022/08/06 04:56:26;;;;;;;4.97;4.87;;;;;;;8.45;100.00;65046.44;5096322;28;20262;-72
2022/08/06 04:59:02;;;;;;;5.87;5.27;;;;;;;8.51;100.00;65066.56;5096719;28;20532;-72
2022/08/06 05:01:29;;;;;;;5.60;5.30;;;;;;;8.61;100.00;65058.97;5096023;28;20670;-72
2022/08/06 05:04:06;;;;;;;6.33;6.03;;;;;;;8.64;100.00;65064.31;5096254;28;20169;-72
2022/08/06 05:07:19;;;;;;;5.47;5.17;;;;;;;8.66;100.00;65069.13;5096189;28;20201;-71
2022/08/06 05:09:48;;;;;;;5.63;5.43;;;;;;;8.74;100.00;65075.38;5079945;28;20213;-72
2022/08/06 05:12:25;;;;;;;6.77;6.27;;;;;;;8.78;100.00;65077.22;5096193;28;20185;-72
2022/08/06 05:15:19;;;;;;;5.63;5.43;;;;;;;8.81;100.00;65083.13;5095969;28;20266;-71
2022/08/06 05:17:57;;;;;;;5.40;5.20;;;;;;;8.92;100.00;65110.28;5095803;28;20193;-71
2022/08/06 05:20:28;;;;;;;5.07;4.97;;;;;;;8.96;100.00;65106.94;5096278;28;20178;-71
2022/08/06 05:23:01;;;;;;;5.33;4.97;;;;;;;9.04;100.00;65129.28;5095649;28;20198;-71
2022/08/06 05:25:36;;;;;;;5.90;5.60;;;;;;;9.14;100.00;65123.72;5095836;28;20595;-71
2022/08/06 05:28:06;;;;;;;5.57;5.30;;;;;;;9.19;100.00;65139.63;5095450;28;20218;-71
2022/08/06 05:30:43;;;;;;;5.47;5.37;;;;;;;9.34;100.00;65140.69;5095828;28;20616;-71
2022/08/06 05:33:10;;;;;;;9.23;6.07;;;;;;;9.40;100.00;65146.78;5095505;28;20519;-71
2022/08/06 05:35:42;;;;;;;5.77;5.40;;;;;;;9.45;100.00;65163.22;5095003;28;20730;-71
2022/08/06 05:38:28;;;;;;;6.17;5.67;;;;;;;9.52;100.00;65160.63;5095375;28;20170;-71
2022/08/06 05:40:58;;;;;;;5.97;5.73;;;;;;;9.59;100.00;65165.78;5095544;28;20648;-71
2022/08/06 05:43:25;;;;;;;4.87;4.67;;;;;;;;;;5095245;28;20190;-73
2022/08/06 05:46:20;;;;;;;5.17;5.07;;;;;;;9.79;100.00;65186.81;5095286;28;20308;-73
2022/08/06 05:48:56;;;;;;;5.07;4.97;;;;;;;9.89;100.00;65201.03;5095385;28;20613;-73
2022/08/06 05:51:32;;;;;;;5.77;5.57;;;;;;;10.01;100.00;65218.41;5095352;28;20196;-73
2022/08/06 05:54:17;;;;;;;5.40;5.30;;;;;;;10.14;100.00;65225.59;5095346;28;20190;-73
2022/08/06 05:56:46;;;;;;;5.27;5.17;;;;;;;10.19;100.00;65233.69;5095214;28;20270;-73
2022/08/06 05:59:32;;;;;;;6.43;6.10;;;;;;;10.31;100.00;65245.91;5094979;28;20252;-73
2022/08/06 06:02:20;;;;;;;5.57;5.37;;;;;;;10.40;100.00;65258.47;5095047;28;20273;-73
2022/08/06 06:04:47;;;;;;;4.80;4.60;;;;;;;10.51;100.00;65264.94;5095060;28;20211;-72
2022/08/06 06:07:35;;;;;;;5.17;4.83;;;;;;;10.59;100.00;65282.13;5095344;28;20194;-73
2022/08/06 06:10:23;;;;;;;7.73;4.97;;;;;;;10.70;100.00;65296.38;5094762;28;20278;-73
2022/08/06 06:12:50;;;;;;;4.57;4.57;;;;;;;10.80;100.00;65304.31;5094996;28;20201;-73
2022/08/06 06:15:19;;;;;;;4.87;4.77;;;;;;;10.90;100.00;65310.19;5094848;28;20204;-73
2022/08/06 06:18:05;;;;;;;4.70;4.50;;;;;;;10.92;100.00;65312.41;5095101;28;20244;-74
2022/08/06 06:20:46;;;;;;;4.80;4.60;;;;;;;;;;5094514;28;20254;-74
2022/08/06 06:23:42;;;;;;;4.67;4.47;;;;;;;;;;5094792;28;20260;-74
2022/08/06 06:26:36;;;;;;;4.80;4.67;;;;;;;11.13;100.00;65335.13;5094682;28;20205;-73
2022/08/06 06:29:15;;;;;;;4.33;4.03;;;;;;;11.26;100.00;65350.09;5094803;28;20208;-73
2022/08/06 06:32:07;;;;;;;4.40;4.17;;;;;;;11.35;100.00;65358.97;5094638;28;20506;-73
2022/08/06 06:35:03;;;;;;;3.50;3.40;;;;;;;11.49;100.00;65375.06;5094667;28;20217;-73
2022/08/06 06:37:56;;;;;;;3.87;3.87;;;;;;;11.60;100.00;65378.91;5094497;28;20185;-73
2022/08/06 06:40:38;;;;;;;3.40;3.30;;;;;;;11.73;100.00;65406.34;5094462;28;20534;-73
2022/08/06 06:43:31;;;;;;;3.20;3.13;;;;;;;11.81;100.00;65409.47;5094142;28;20217;-73
2022/08/06 06:46:19;;;;;;;2.60;2.50;;;;;;;11.97;100.00;65424.09;5094140;28;20206;-73
2022/08/06 06:49:32;;;;;;;3.77;3.47;;;;;;;12.17;100.00;65448.31;5094350;28;20592;-73
2022/08/06 06:52:38;;;;;;;3.50;3.40;;;;;;;12.33;100.00;65468.69;5093939;28;20256;-74
2022/08/06 06:55:24;;;;;;;2.30;2.20;;;;;;;12.48;100.00;65484.78;5094211;28;20212;-73
2022/08/06 06:58:25;;;;;;;1.93;1.93;;;;;;;12.55;100.00;65487.34;5093764;28;20181;-73
2022/08/06 07:00:55;;;;;;;2.70;2.60;;;;;;;12.66;100.00;65499.56;5094138;28;20186;-73
2022/08/06 07:03:43;;;;;;;2.00;2.00;;;;;;;;;;5093739;28;20208;-73
2022/08/06 07:06:10;;;;;;;1.90;1.90;;;;;;;12.82;100.00;65516.78;5093715;28;20292;-74
2022/08/06 07:08:58;;;;;;;2.23;2.07;;;;;;;12.96;99.87;65532.31;5093644;28;20276;-74
2022/08/06 07:11:40;;;;;;;1.90;1.80;;;;;;;13.06;98.95;65542.88;5093635;28;20177;-74
2022/08/06 07:14:29;;;;;;;1.13;1.13;;;;;;;13.16;97.93;65556.59;5093831;28;20534;-73
2022/08/06 07:17:01;;;;;;;1.17;1.17;;;;;;;13.23;97.25;65561.22;5093901;28;20223;-73
2022/08/06 07:19:50;;;;;;;1.53;1.43;;;;;;;13.40;97.38;65580.13;5093798;28;20691;-73
2022/08/06 07:22:18;;;;;;;1.40;1.40;;;;;;;13.53;96.12;65596.63;5093962;28;20194;-74
2022/08/06 07:24:50;;;;;;;1.50;1.50;;;;;;;;;;5093701;28;20206;-74
2022/08/06 07:27:28;;;;;;;1.97;1.97;;;;;;;13.67;95.28;65612.19;5093489;28;20204;-74
2022/08/06 07:30:07;;;;;;;1.40;1.30;;;;;;;;;;5060316;28;20192;-74
2022/08/06 07:32:34;;;;;;;1.30;1.20;;;;;;;13.83;94.87;65626.78;5093361;28;20234;-74
2022/08/06 07:35:05;;;;;;;2.83;1.10;;;;;;;;;;5093339;28;20346;-74
2022/08/06 07:37:52;;;;;;;2.13;1.27;;;;;;;14.05;93.66;65659.63;5093622;28;20173;-74
2022/08/06 07:40:23;;;;;;;0.90;0.90;;;;;;;14.04;91.98;65650.69;5093653;28;20220;-75
2022/08/06 07:43:04;;;;;;;0.70;0.70;;;;;;;14.09;90.66;65657.75;5076417;28;20177;-74
2022/08/06 07:45:54;;;;;;;0.90;0.90;;;;;;;14.07;88.45;65653.47;5093319;28;20213;-74
2022/08/06 07:48:24;;;;;;;7.43;1.03;;;;;;;;;;5093636;28;20252;-75
2022/08/06 07:50:53;;;;;;;1.03;1.03;;;;;;;14.17;87.16;65666.66;5094091;28;20527;-74
2022/08/06 07:53:21;;;;;;;3.03;1.50;;;;;;;14.16;87.22;65665.53;5093468;28;20185;-75
2022/08/06 07:56:10;;;;;;;0.90;0.90;;;;;;;;;;5093140;28;20300;-75
2022/08/06 07:58:37;;;;;;;1.30;1.17;;;;;;;14.18;86.57;65672.97;5094320;28;20212;-74
2022/08/06 08:01:06;;;;;;;1.03;1.00;;;;;;;14.21;85.15;65668.47;5097553;28;20547;-75
2022/08/06 08:06:25;;;;;;;1.10;1.10;;;;;;;14.40;86.01;65689.59;5097244;28;20213;-75
2022/08/06 08:08:54;;;;;;;1.30;1.30;;;;;;;14.57;83.33;65711.16;5097031;28;20198;-74
2022/08/06 08:11:24;;;;;;;1.00;1.00;;;;;;;14.46;80.98;65696.31;5097899;28;20530;-75
2022/08/06 08:14:13;;;;;;;1.37;1.37;;;;;;;14.48;81.07;65701.13;5096973;28;20272;-74
2022/08/06 08:16:40;;;;;;;0.80;0.80;;;;;;;;;;5097261;28;20206;-75
2022/08/06 08:19:24;;;;;;;1.10;1.10;;;;;;;;;;5097416;28;20231;-74
2022/08/06 08:21:52;;;;;;;3.03;0.97;;;;;;;14.57;81.79;65711.16;5097195;28;20213;-74
2022/08/06 08:24:18;;;;;;;1.20;1.20;;;;;;;;;;5096859;28;20182;-75
2022/08/06 08:26:44;;;;;;;1.50;1.50;;;;;;;;;;5096801;28;20225;-75
2022/08/06 08:29:31;;;;;;;1.30;1.30;;;;;;;14.74;78.97;65726.34;5096582;28;20292;-75
2022/08/06 08:32:00;;;;;;;1.00;1.00;;;;;;;14.82;77.39;65735.25;5096997;28;20223;-74
2022/08/06 08:34:31;;;;;;;1.20;1.20;;;;;;;14.87;78.72;65740.81;5079417;28;20189;-75
2022/08/06 08:36:59;;;;;;;1.50;1.50;;;;;;;;;;5097233;28;20178;-75
2022/08/06 08:39:27;;;;;;;2.50;1.37;;;;;;;;;;5096832;28;20253;-75
2022/08/06 08:42:02;;;;;;;1.10;1.10;;;;;;;;;;5096940;28;20612;-75
2022/08/06 08:44:30;;;;;;;1.30;1.20;;;;;;;15.01;80.39;65756.38;5096400;28;20174;-74
2022/08/06 08:46:58;;;;;;;1.40;1.40;;;;;;;15.03;78.92;65761.22;5096395;28;20185;-75
2022/08/06 08:49:34;;;;;;;1.10;1.10;;;;;;;15.25;78.53;65774.13;5096271;28;20703;-74
2022/08/06 08:52:06;;;;;;;1.20;1.20;;;;;;;15.34;76.84;65797.78;5096934;28;20177;-74
2022/08/06 08:54:37;;;;;;;6.10;1.30;;;;;;;;;;5096678;28;20166;-74
2022/08/06 08:57:06;;;;;;;0.97;0.97;;;;;;;15.39;74.94;65805.41;5096176;28;20186;-74
2022/08/06 08:59:54;;;;;;;1.10;1.10;;;;;;;;;;5096160;28;20623;-75
2022/08/06 09:02:26;;;;;;;1.10;1.10;;;;;;;;;;5096513;28;20636;-75
2022/08/06 09:04:54;;;;;;;1.47;1.40;;;;;;;15.57;77.29;65817.59;5078057;28;20210;-75
2022/08/06 09:07:24;;;;;;;1.50;1.47;;;;;;;;;;5095970;28;20179;-75
2022/08/06 09:10:04;;;;;;;1.80;1.70;;;;;;;;;;5079382;28;20222;-75
2022/08/06 09:12:30;;;;;;;1.87;1.73;;;;;;;15.61;73.79;65824.09;5095821;28;20246;-75
2022/08/06 09:15:10;;;;;;;1.63;1.63;;;;;;;;;;5095973;28;20210;-75
2022/08/06 09:17:40;;;;;;;1.40;1.40;;;;;;;15.51;75.94;65818.78;5095866;28;20236;-75
2022/08/06 09:20:26;;;;;;;1.87;1.80;;;;;;;15.55;76.69;65815.38;5096205;28;20170;-75
2022/08/06 09:22:53;;;;;;;1.20;1.20;;;;;;;;;;5095754;28;20186;-75
2022/08/06 09:25:34;;;;;;;2.53;1.80;;;;;;;;;;5095847;28;20572;-75
2022/08/06 09:28:37;;;;;;;2.10;2.10;;;;;;;15.69;76.87;65830.41;5095620;28;20210;-75
2022/08/06 09:31:10;;;;;;;2.10;2.10;;;;;;;15.85;75.29;65853.47;5095688;28;20194;-75
2022/08/06 09:34:00;;;;;;;1.83;1.73;;;;;;;15.75;75.16;65837.09;5096246;28;20546;-75
2022/08/06 09:36:48;;;;;;;1.60;1.60;;;;;;;;;;5095802;28;20216;-75
2022/08/06 09:39:41;;;;;;;1.50;1.50;;;;;;;;;;5096040;28;20177;-74
2022/08/06 09:42:39;;;;;;;2.00;2.00;;;;;;;;;;5095441;28;20580;-75
2022/08/06 09:45:10;;;;;;;1.50;1.50;;;;;;;15.64;74.00;65819.59;5095565;28;20319;-75
2022/08/06 09:47:44;;;;;;;1.73;1.73;;;;;;;15.77;73.05;65841.38;5095719;28;20838;-75
2022/08/06 09:50:43;;;;;;;1.40;1.40;;;;;;;;;;5095500;28;20170;-73
2022/08/06 09:53:16;;;;;;;1.00;1.00;;;;;;;16.12;71.70;65877.75;5095254;28;20186;-74
2022/08/06 09:55:46;;;;;;;1.00;1.00;;;;;;;16.27;70.75;65888.66;5095132;28;20691;-74
2022/08/06 09:58:13;;;;;;;1.20;1.20;;;;;;;16.37;70.67;65912.91;5095168;28;20185;-74
2022/08/06 10:00:40;;;;;;;2.53;1.00;;;;;;;16.53;69.54;65922.31;5094839;28;20720;-74
2022/08/06 10:03:11;;;;;;;1.30;1.30;;;;;;;;;;5095242;28;20515;-75
2022/08/06 10:06:06;;;;;;;0.80;0.80;;;;;;;16.66;71.36;65938.88;5094809;28;20209;-75
2022/08/06 10:08:36;;;;;;;0.90;0.90;;;;;;;;;;5094790;28;20667;-75
2022/08/06 10:11:02;;;;;;;1.10;1.10;;;;;;;;;;5094960;28;20186;-75
2022/08/06 10:13:32;;;;;;;1.00;1.00;;;;;;;;;;5094749;28;20174;-75
2022/08/06 10:16:26;;;;;;;1.30;1.30;;;;;;;16.52;69.17;65921.19;5094751;28;20209;-75
2022/08/06 10:18:55;;;;;;;1.30;1.30;;;;;;;;;;5094897;28;20178;-75
2022/08/06 10:21:29;;;;;;;1.60;1.50;;;;;;;16.61;67.77;65925.44;5094994;28;20166;-76
2022/08/06 10:24:09;;;;;;;1.30;1.30;;;;;;;16.52;68.63;65924.38;5094358;28;20584;-75
2022/08/06 10:26:35;;;;;;;1.57;1.57;;;;;;;;;;5094180;28;20209;-75
2022/08/06 10:29:06;;;;;;;1.00;1.00;;;;;;;;;;5075718;28;20195;-74
2022/08/06 10:31:34;;;;;;;1.20;1.20;;;;;;;;;;5119904;27;20208;-74
2022/08/06 10:34:13;;;;;;;1.00;1.00;;;;;;;16.33;69.38;65900.03;5115910;27;20199;-75
2022/08/06 10:36:50;;;;;;;0.80;0.80;;;;;;;;;;5114527;28;20201;-74
2022/08/06 10:39:19;;;;;;;1.00;1.00;;;;;;;;;;5114629;28;20177;-75
2022/08/06 10:42:07;;;;;;;1.50;0.90;;;;;;;16.75;72.16;65954.16;5096156;28;20220;-75
2022/08/06 10:44:48;;;;;;;0.90;0.90;;;;;;;16.84;67.36;65951.06;5114523;28;20247;-74
2022/08/06 10:47:16;;;;;;;1.10;1.10;;;;;;;;;;5114946;28;20268;-74
2022/08/06 10:50:03;;;;;;;0.80;0.80;;;;;;;17.03;68.64;65976.94;5114607;28;20228;-75
2022/08/06 10:52:49;;;;;;;0.87;0.80;;;;;;;16.98;65.95;65971.38;5114620;28;20197;-75
2022/08/06 10:55:17;;;;;;;1.00;1.00;;;;;;;16.88;66.19;65960.78;5114754;28;20204;-76
2022/08/06 10:57:43;;;;;;;1.10;1.10;;;;;;;;;;5115857;27;20237;-74
2022/08/06 11:00:10;;;;;;;0.80;0.80;;;;;;;;;;5131406;27;20312;-75
2022/08/06 11:02:56;;;;;;;0.90;0.90;;;;;;;;;;5112976;27;20189;-73
2022/08/06 11:05:34;;;;;;;1.20;1.20;;;;;;;16.88;65.18;65960.78;5112853;28;20209;-75
2022/08/06 11:08:36;;;;;;;1.13;1.13;;;;;;;16.97;66.33;65972.88;5114361;28;20173;-76
2022/08/06 11:11:53;;;;;;;0.90;0.90;;;;;;;16.99;64.26;65975.09;5114524;28;20227;-74
2022/08/06 11:14:36;;;;;;;0.90;0.90;;;;;;;17.00;63.77;65965.72;5113917;28;20603;-73
2022/08/06 11:17:05;;;;;;;0.80;0.80;;;;;;;16.96;64.54;65972.31;5114206;28;20211;-74
2022/08/06 11:19:45;;;;;;;2.00;1.00;;;;;;;17.01;64.25;65977.34;5113931;28;20170;-74
2022/08/06 11:22:32;;;;;;;0.73;0.73;;;;;;;;;;5113803;28;20212;-73
2022/08/06 11:24:59;;;;;;;1.17;1.10;;;;;;;;;;5113917;28;20212;-72
2022/08/06 11:27:52;;;;;;;1.10;1.10;;;;;;;17.32;63.62;66016.59;5113960;28;20185;-74
2022/08/06 11:30:38;;;;;;;1.00;1.00;;;;;;;17.40;62.46;66017.06;5106882;28;20312;-72
2022/08/06 11:33:05;;;;;;;1.00;1.00;;;;;;;17.47;62.43;66024.88;5114317;28;20552;-73
2022/08/06 11:35:32;;;;;;;1.03;1.03;;;;;;;17.51;60.83;66035.16;5113610;28;20201;-73
2022/08/06 11:38:42;;;;;;;1.10;1.10;;;;;;;17.47;61.79;66024.88;5113963;28;20623;-74
2022/08/06 11:41:17;;;;;;;1.47;1.47;;;;;;;17.60;62.16;66034.13;5113894;28;20173;-73
2022/08/06 11:44:05;;;;;;;1.00;1.00;;;;;;;17.52;60.82;66033.09;5113873;28;20220;-73
2022/08/06 11:46:35;;;;;;;0.90;0.90;;;;;;;17.61;59.71;66040.50;5113441;28;20694;-74
2022/08/06 11:49:21;;;;;;;0.90;0.90;;;;;;;17.70;61.50;66049.97;5113767;28;20614;-73
2022/08/06 11:51:58;;;;;;;0.90;0.90;;;;;;;17.70;61.58;66055.78;5113816;28;20573;-73
2022/08/06 11:54:44;;;;;;;2.87;1.03;;;;;;;17.56;59.99;66027.59;5113761;28;20574;-74
2022/08/06 11:57:13;;;;;;;1.20;1.20;;;;;;;;;;5113541;28;20181;-73
2022/08/06 11:59:58;;;;;;;0.80;0.80;;;;;;;;;;5113755;28;20165;-73
2022/08/06 12:02:39;;;;;;;0.80;0.80;;;;;;;17.36;61.64;66013.19;5113465;28;20720;-73
2022/08/06 12:05:12;;;;;;;0.83;0.83;;;;;;;17.28;62.12;66006.88;5113412;28;20204;-73
2022/08/06 12:07:39;;;;;;;0.90;0.90;;;;;;;;;;5113430;28;20230;-74
2022/08/06 12:10:18;;;;;;;0.80;0.80;;;;;;;17.27;63.09;66003.69;5113279;28;20196;-74
2022/08/06 12:12:54;;;;;;;1.57;0.93;;;;;;;17.20;63.30;65995.88;5097320;28;20173;-73
2022/08/06 12:15:24;;;;;;;0.60;0.60;;;;;;;17.21;64.85;65999.06;5113284;28;20205;-74
2022/08/06 12:18:10;;;;;;;0.90;0.90;;;;;;;17.29;64.49;66005.94;5113309;28;20277;-73
2022/08/06 12:20:55;;;;;;;1.07;1.07;;;;;;;;;;5113826;28;20185;-73
2022/08/06 12:23:23;;;;;;;0.90;0.90;;;;;;;;;;5113252;28;20284;-73
2022/08/06 12:26:10;;;;;;;1.10;1.10;;;;;;;17.74;61.17;66062.34;5113402;28;20266;-73
2022/08/06 12:28:37;;;;;;;1.00;1.00;;;;;;;17.64;61.91;66043.28;5112992;28;20255;-73
2022/08/06 12:31:04;;;;;;;1.00;1.00;;;;;;;17.68;62.80;66043.06;5113767;28;20176;-73
2022/08/06 12:33:50;;;;;;;1.20;1.20;;;;;;;17.60;62.04;66039.38;5113346;28;20224;-74
2022/08/06 12:36:17;;;;;;;0.77;0.77;;;;;;;;;;5113186;28;20209;-73
2022/08/06 12:39:01;;;;;;;0.70;0.70;;;;;;;;;;5113543;28;20170;-73
2022/08/06 12:41:38;;;;;;;1.43;1.30;;;;;;;17.49;62.62;66027.66;5113197;28;20720;-74
2022/08/06 12:44:14;;;;;;;1.10;1.10;;;;;;;17.49;61.73;66029.72;5113714;28;20622;-73
2022/08/06 12:47:12;;;;;;;1.10;1.10;;;;;;;17.53;62.55;66026.31;5116264;28;20591;-73
2022/08/06 12:49:39;;;;;;;1.27;1.27;;;;;;;17.51;62.58;66022.03;5116953;28;20246;-73
2022/08/06 12:52:20;;;;;;;0.87;0.87;;;;;;;17.47;62.90;66027.50;5117315;28;20180;-73
2022/08/06 12:54:55;;;;;;;1.17;1.17;;;;;;;;;;5116832;28;20574;-72